createdAt,value
2023-05-09T00:00:11.236Z,100986.41
2023-05-09T00:02:40.041Z,100982.22
2023-05-09T00:05:10.489Z,100981.28
2023-05-09T00:07:38.910Z,100983.44
2023-05-09T00:10:08.303Z,100976.78
2023-05-09T00:12:36.964Z,100973.03
2023-05-09T00:15:08.394Z,100968.16
2023-05-09T00:17:38.795Z,100966.63
2023-05-09T00:20:12.619Z,100966.63
2023-05-09T00:22:42.478Z,100960.72
2023-05-09T00:25:12.778Z,100965.97
2023-05-09T00:27:41.288Z,100969.78
2023-05-09T00:30:10.443Z,100967.09
2023-05-09T00:32:40.380Z,100968.16
2023-05-09T00:35:10.236Z,100969.47
2023-05-09T00:37:38.822Z,100971.72
2023-05-09T00:40:09.985Z,100977.19
2023-05-09T00:42:39.203Z,100974.22
2023-05-09T00:45:08.856Z,100975.25
2023-05-09T00:47:37.489Z,100976.50
2023-05-09T00:50:07.106Z,100980.53
2023-05-09T00:52:35.600Z,100985.66
2023-05-09T00:55:04.615Z,100978.13
2023-05-09T00:57:34.540Z,100987.03
2023-05-09T01:00:04.521Z,100989.81
2023-05-09T01:02:33.271Z,100983.28
2023-05-09T01:05:02.092Z,100997.75
2023-05-09T01:07:36.962Z,101003.16
2023-05-09T01:10:13.078Z,101007.94
2023-05-09T01:12:49.076Z,100997.75
2023-05-09T01:15:26.077Z,101005.84
2023-05-09T01:17:59.928Z,100994.69
2023-05-09T01:20:34.869Z,100987.22
2023-05-09T01:23:28.141Z,100998.16
2023-05-09T01:26:03.797Z,100996.31
2023-05-09T01:28:54.737Z,101003.97
2023-05-09T01:31:26.019Z,100994.91
2023-05-09T01:33:59.734Z,100997.25
2023-05-09T01:36:32.942Z,100992.97
2023-05-09T01:39:04.414Z,100992.94
2023-05-09T01:41:37.861Z,101003.84
2023-05-09T01:44:09.644Z,101001.81
2023-05-09T01:46:40.650Z,101001.34
2023-05-09T01:49:10.450Z,101000.22
2023-05-09T01:51:42.263Z,100997.00
2023-05-09T01:54:13.305Z,100995.53
2023-05-09T01:56:44.210Z,100989.72
2023-05-09T01:59:16.348Z,100989.50
2023-05-09T02:01:48.172Z,100996.44
2023-05-09T02:04:19.547Z,100998.28
2023-05-09T02:06:51.431Z,100986.56
2023-05-09T02:09:21.239Z,101002.41
2023-05-09T02:11:49.586Z,101001.34
2023-05-09T02:14:17.939Z,101005.44
2023-05-09T02:16:47.775Z,101000.91
2023-05-09T02:19:17.011Z,101009.72
2023-05-09T02:21:45.814Z,101006.75
2023-05-09T02:24:14.346Z,101001.41
2023-05-09T02:26:43.770Z,101011.81
2023-05-09T02:29:13.284Z,101007.22
2023-05-09T02:31:43.791Z,101009.66
2023-05-09T02:34:14.665Z,101013.59
2023-05-09T02:36:43.598Z,101002.69
2023-05-09T02:39:12.283Z,101017.13
2023-05-09T02:41:40.636Z,101010.22
2023-05-09T02:44:09.001Z,101014.50
2023-05-09T02:46:37.373Z,101016.94
2023-05-09T02:49:05.721Z,101013.19
2023-05-09T02:51:35.507Z,101017.50
2023-05-09T02:54:03.825Z,101011.88
2023-05-09T02:56:32.406Z,101013.47
2023-05-09T02:59:00.817Z,101016.41
2023-05-09T03:01:29.154Z,101015.63
2023-05-09T03:03:57.694Z,101008.94
2023-05-09T03:06:26.102Z,101007.31
2023-05-09T03:08:55.849Z,101006.53
2023-05-09T03:11:24.527Z,101019.38
2023-05-09T03:13:52.925Z,101018.50
2023-05-09T03:16:21.775Z,101023.28
2023-05-09T03:18:50.135Z,101021.41
2023-05-09T03:21:18.459Z,101023.44
2023-05-09T03:23:48.245Z,101016.09
2023-05-09T03:26:18.093Z,101029.19
2023-05-09T03:28:49.005Z,101027.03
2023-05-09T03:31:17.751Z,101021.59
2023-05-09T03:33:46.107Z,101024.22
2023-05-09T03:36:14.453Z,101025.75
2023-05-09T03:38:42.819Z,101027.69
2023-05-09T03:41:11.520Z,101035.09
2023-05-09T03:43:41.229Z,101039.31
2023-05-09T03:46:09.626Z,101033.94
2023-05-09T03:48:37.954Z,101037.97
2023-05-09T03:51:06.446Z,101036.66
2023-05-09T03:53:34.865Z,101048.41
2023-05-09T03:56:03.168Z,101043.81
2023-05-09T03:58:31.572Z,101053.09
2023-05-09T04:01:01.401Z,101056.03
2023-05-09T04:03:30.015Z,101054.53
2023-05-09T04:05:58.527Z,101059.00
2023-05-09T04:08:28.342Z,101053.97
2023-05-09T04:10:56.717Z,101058.94
2023-05-09T04:13:25.117Z,101063.81
2023-05-09T04:15:53.600Z,101057.22
2023-05-09T04:18:23.383Z,101063.53
2023-05-09T04:20:51.661Z,101063.19
2023-05-09T04:23:20.046Z,101075.38
2023-05-09T04:25:51.387Z,101068.06
2023-05-09T04:28:19.745Z,101064.47
2023-05-09T04:30:48.044Z,101071.81
2023-05-09T04:33:17.141Z,101066.69
2023-05-09T04:35:46.882Z,101066.63
2023-05-09T04:38:15.247Z,101066.13
2023-05-09T04:40:43.600Z,101074.16
2023-05-09T04:43:11.982Z,101064.31
2023-05-09T04:45:40.402Z,101075.75
2023-05-09T04:48:09.076Z,101079.06
2023-05-09T04:50:37.767Z,101078.44
2023-05-09T04:53:08.532Z,101077.28
2023-05-09T04:55:36.980Z,101082.00
2023-05-09T04:58:05.315Z,101084.69
2023-05-09T05:00:33.740Z,101084.69
2023-05-09T05:03:02.227Z,101083.53
2023-05-09T05:05:30.714Z,101087.19
2023-05-09T05:07:59.809Z,101088.47
2023-05-09T05:10:30.369Z,101083.25
2023-05-09T05:12:58.844Z,101092.28
2023-05-09T05:15:27.957Z,101085.34
2023-05-09T05:17:56.326Z,101080.88
2023-05-09T05:20:25.009Z,101092.88
2023-05-09T05:22:54.646Z,101084.28
2023-05-09T05:25:23.116Z,101085.06
2023-05-09T05:27:52.953Z,101080.91
2023-05-09T05:30:22.179Z,101085.09
2023-05-09T05:32:50.563Z,101098.25
2023-05-09T05:35:19.543Z,101087.44
2023-05-09T05:37:49.115Z,101089.28
2023-05-09T05:40:17.648Z,101084.84
2023-05-09T05:42:46.755Z,101104.56
2023-05-09T05:45:16.716Z,101106.53
2023-05-09T05:47:45.795Z,101087.22
2023-05-09T05:50:14.633Z,101077.28
2023-05-09T05:52:43.386Z,101084.44
2023-05-09T05:55:11.870Z,101082.16
2023-05-09T05:57:40.367Z,101091.09
2023-05-09T06:00:11.310Z,101090.38
2023-05-09T06:02:44.858Z,101078.16
2023-05-09T06:05:13.755Z,101078.06
2023-05-09T06:07:44.240Z,101085.03
2023-05-09T06:10:12.800Z,101086.19
2023-05-09T06:12:41.475Z,101097.91
2023-05-09T06:15:10.447Z,101090.16
2023-05-09T06:17:38.938Z,101092.16
2023-05-09T06:20:09.700Z,101102.88
2023-05-09T06:22:38.131Z,101095.00
2023-05-09T06:25:10.173Z,101102.38
2023-05-09T06:27:39.097Z,101095.91
2023-05-09T06:30:24.011Z,101093.53
2023-05-09T06:32:54.454Z,101093.69
2023-05-09T06:35:24.351Z,101099.19
2023-05-09T06:37:52.706Z,101103.28
2023-05-09T06:40:21.423Z,101110.41
2023-05-09T06:42:49.762Z,101108.28
2023-05-09T06:45:18.523Z,101102.53
2023-05-09T06:47:47.275Z,101102.38
2023-05-09T06:50:15.827Z,101106.53
2023-05-09T06:52:45.649Z,101106.16
2023-05-09T06:55:14.165Z,101108.19
2023-05-09T06:57:42.714Z,101098.97
2023-05-09T07:00:12.231Z,101101.25
2023-05-09T07:02:42.551Z,101111.47
2023-05-09T07:05:11.592Z,101106.13
2023-05-09T07:07:40.823Z,101107.34
2023-05-09T07:10:13.224Z,101101.56
2023-05-09T07:12:42.145Z,101097.88
2023-05-09T07:15:11.727Z,101092.63
2023-05-09T07:17:40.156Z,101098.78
2023-05-09T07:20:09.509Z,101107.69
2023-05-09T07:22:38.128Z,101100.66
2023-05-09T07:25:09.299Z,101106.50
2023-05-09T07:27:39.465Z,101110.81
2023-05-09T07:30:09.427Z,101108.72
2023-05-09T07:32:37.933Z,101112.97
2023-05-09T07:35:07.291Z,101109.09
2023-05-09T07:37:36.159Z,101107.84
2023-05-09T07:40:06.273Z,101097.72
2023-05-09T07:42:34.668Z,101111.72
2023-05-09T07:45:06.302Z,101103.53
2023-05-09T07:47:34.852Z,101104.75
2023-05-09T07:50:03.321Z,101110.59
2023-05-09T07:52:31.707Z,101102.88
2023-05-09T07:55:00.328Z,101113.69
2023-05-09T07:57:28.727Z,101109.69
2023-05-09T07:59:57.267Z,101124.53
2023-05-09T08:02:27.177Z,101112.16
2023-05-09T08:04:55.646Z,101114.88
2023-05-09T08:07:24.012Z,101121.72
2023-05-09T08:09:52.334Z,101109.25
2023-05-09T08:12:20.906Z,101117.69
2023-05-09T08:14:49.369Z,101107.91
2023-05-09T08:17:17.771Z,101121.84
2023-05-09T08:19:47.595Z,101120.66
2023-05-09T08:22:19.689Z,101116.28
2023-05-09T08:24:48.465Z,101111.06
2023-05-09T08:27:16.855Z,101104.28
2023-05-09T08:29:45.603Z,101100.38
2023-05-09T08:32:14.340Z,101104.03
2023-05-09T08:34:42.832Z,101108.13
2023-05-09T08:37:15.076Z,101109.59
2023-05-09T08:39:44.185Z,101117.00
2023-05-09T08:42:16.072Z,101106.59
2023-05-09T08:44:44.517Z,101106.34
2023-05-09T08:47:13.385Z,101095.72
2023-05-09T08:49:42.476Z,101114.41
2023-05-09T08:52:12.720Z,101111.31
2023-05-09T08:54:41.792Z,101108.53
2023-05-09T08:57:10.524Z,101112.97
2023-05-09T08:59:41.686Z,101107.47
2023-05-09T09:02:13.883Z,101096.72
2023-05-09T09:04:42.561Z,101098.31
2023-05-09T09:07:13.670Z,101093.69
2023-05-09T09:09:47.351Z,101103.47
2023-05-09T09:12:17.726Z,101112.81
2023-05-09T09:14:50.767Z,101089.81
2023-05-09T09:17:22.161Z,101095.28
2023-05-09T09:19:56.088Z,101090.97
2023-05-09T09:22:28.415Z,101094.31
2023-05-09T09:24:56.985Z,101093.63
2023-05-09T09:27:25.379Z,101084.13
2023-05-09T09:29:53.763Z,101085.59
2023-05-09T09:32:23.175Z,101104.94
2023-05-09T09:34:51.840Z,101092.09
2023-05-09T09:37:27.913Z,101100.69
2023-05-09T09:39:56.721Z,101096.84
2023-05-09T09:42:25.101Z,101102.13
2023-05-09T09:44:58.137Z,101100.47
2023-05-09T09:47:33.309Z,101110.34
2023-05-09T09:50:12.204Z,101111.59
2023-05-09T09:52:50.545Z,101103.22
2023-05-09T09:55:19.266Z,101106.47
2023-05-09T09:57:48.576Z,101109.44
2023-05-09T10:00:18.740Z,101110.44
2023-05-09T10:02:51.808Z,101127.28
2023-05-09T10:05:21.769Z,101112.75
2023-05-09T10:07:56.938Z,101120.13
2023-05-09T10:10:27.958Z,101115.97
2023-05-09T10:12:59.122Z,101117.94
2023-05-09T10:15:30.126Z,101115.03
2023-05-09T10:18:04.618Z,101111.22
2023-05-09T10:20:33.752Z,101125.06
2023-05-09T10:23:05.341Z,101125.59
2023-05-09T10:25:41.102Z,101121.97
2023-05-09T10:28:13.323Z,101115.31
2023-05-09T10:30:52.616Z,101120.84
2023-05-09T10:33:25.704Z,101119.84
2023-05-09T10:35:56.439Z,101122.47
2023-05-09T10:38:26.714Z,101121.25
2023-05-09T10:40:55.721Z,101120.88
2023-05-09T10:43:25.425Z,101126.16
2023-05-09T10:45:54.665Z,101135.88
2023-05-09T10:48:25.205Z,101118.56
2023-05-09T10:50:54.239Z,101113.88
2023-05-09T10:53:24.492Z,101119.09
2023-05-09T10:55:56.695Z,101121.88
2023-05-09T10:58:29.209Z,101120.66
2023-05-09T11:00:59.354Z,101116.53
2023-05-09T11:03:29.040Z,101121.34
2023-05-09T11:05:58.755Z,101113.28
2023-05-09T11:08:28.467Z,101117.94
2023-05-09T11:11:00.729Z,101113.41
2023-05-09T11:13:33.584Z,101121.66
2023-05-09T11:16:12.525Z,101121.97
2023-05-09T11:18:53.306Z,101132.50
2023-05-09T11:21:22.436Z,101124.69
2023-05-09T11:23:53.823Z,101124.53
2023-05-09T11:26:31.367Z,101123.44
2023-05-09T11:29:02.849Z,101133.75
2023-05-09T11:31:32.077Z,101136.59
2023-05-09T11:34:04.987Z,101135.50
2023-05-09T11:36:33.989Z,101137.78
2023-05-09T11:39:07.967Z,101143.22
2023-05-09T11:41:45.437Z,101137.75
2023-05-09T11:44:18.574Z,101131.31
2023-05-09T11:46:47.664Z,101133.00
2023-05-09T11:49:17.172Z,101130.44
2023-05-09T11:51:45.570Z,101137.69
2023-05-09T11:54:15.114Z,101136.94
2023-05-09T11:56:45.072Z,101148.53
2023-05-09T11:59:15.926Z,101134.66
2023-05-09T12:01:44.309Z,101130.22
2023-05-09T12:04:13.169Z,101127.91
2023-05-09T12:06:50.597Z,101123.94
2023-05-09T12:09:20.090Z,101132.31
2023-05-09T12:11:51.417Z,101128.59
2023-05-09T12:14:30.770Z,101125.53
2023-05-09T12:16:59.521Z,101116.94
2023-05-09T12:19:28.620Z,101123.59
2023-05-09T12:21:59.262Z,101110.97
2023-05-09T12:24:28.101Z,101121.09
2023-05-09T12:26:57.078Z,101114.66
2023-05-09T12:29:26.440Z,101106.53
2023-05-09T12:31:55.455Z,101104.06
2023-05-09T12:34:23.949Z,101103.00
2023-05-09T12:36:52.314Z,101100.41
2023-05-09T12:39:23.181Z,101108.03
2023-05-09T12:42:01.669Z,101106.34
2023-05-09T12:44:30.533Z,101103.38
2023-05-09T12:47:00.400Z,101108.63
2023-05-09T12:49:29.448Z,101119.06
2023-05-09T12:52:01.592Z,101113.22
2023-05-09T12:54:33.808Z,101108.06
2023-05-09T12:57:04.458Z,101106.28
2023-05-09T12:59:33.437Z,101120.09
2023-05-09T13:02:02.449Z,101112.72
2023-05-09T13:04:30.783Z,101116.47
2023-05-09T13:07:00.365Z,101106.38
2023-05-09T13:09:28.798Z,101108.81
2023-05-09T13:11:58.676Z,101109.03
2023-05-09T13:14:28.605Z,101103.03
2023-05-09T13:16:57.214Z,101102.13
2023-05-09T13:19:25.793Z,101097.25
2023-05-09T13:21:55.174Z,101107.00
2023-05-09T13:24:23.447Z,101109.59
2023-05-09T13:26:51.709Z,101113.53
2023-05-09T13:29:21.406Z,101099.31
2023-05-09T13:31:50.842Z,101098.72
2023-05-09T13:34:19.208Z,101099.19
2023-05-09T13:36:47.564Z,101102.00
2023-05-09T13:39:16.681Z,101112.56
2023-05-09T13:41:45.517Z,101115.28
2023-05-09T13:44:13.755Z,101116.22
2023-05-09T13:46:43.787Z,101113.47
2023-05-09T13:49:12.488Z,101119.22
2023-05-09T13:51:41.157Z,101111.88
2023-05-09T13:54:12.770Z,101114.41
2023-05-09T13:56:41.784Z,101106.59
2023-05-09T13:59:10.488Z,101108.38
2023-05-09T14:01:38.946Z,101108.28
2023-05-09T14:04:09.432Z,101107.31
2023-05-09T14:06:37.822Z,101111.81
2023-05-09T14:09:07.368Z,101118.97
2023-05-09T14:11:35.644Z,101112.31
2023-05-09T14:14:04.075Z,101107.16
2023-05-09T14:16:32.565Z,101101.72
2023-05-09T14:19:00.904Z,101095.16
2023-05-09T14:21:30.619Z,101091.91
2023-05-09T14:23:58.900Z,101095.66
2023-05-09T14:26:27.927Z,101095.88
2023-05-09T14:28:56.429Z,101101.81
2023-05-09T14:31:24.875Z,101105.41
2023-05-09T14:33:53.163Z,101097.47
2023-05-09T14:36:21.551Z,101095.84
2023-05-09T14:38:51.305Z,101099.63
2023-05-09T14:41:21.404Z,101092.44
2023-05-09T14:43:49.876Z,101091.75
2023-05-09T14:46:18.324Z,101085.88
2023-05-09T14:48:46.599Z,101088.88
2023-05-09T14:51:14.820Z,101081.69
2023-05-09T14:53:43.137Z,101084.44
2023-05-09T14:56:13.250Z,101098.59
2023-05-09T14:58:41.534Z,101106.25
2023-05-09T15:01:09.824Z,101099.88
2023-05-09T15:03:39.438Z,101096.66
2023-05-09T15:06:08.019Z,101100.94
2023-05-09T15:08:36.678Z,101111.88
2023-05-09T15:11:04.927Z,101099.75
2023-05-09T15:13:34.716Z,101098.47
2023-05-09T15:16:03.261Z,101099.31
2023-05-09T15:18:31.666Z,101095.00
2023-05-09T15:20:59.948Z,101097.34
2023-05-09T15:23:28.402Z,101093.03
2023-05-09T15:25:56.895Z,101091.25
2023-05-09T15:28:25.179Z,101097.22
2023-05-09T15:30:55.065Z,101106.09
2023-05-09T15:33:23.401Z,101107.81
2023-05-09T15:35:51.729Z,101098.56
2023-05-09T15:38:20.183Z,101095.94
2023-05-09T15:40:48.644Z,101092.78
2023-05-09T15:43:17.273Z,101100.13
2023-05-09T15:45:46.906Z,101098.72
2023-05-09T15:48:17.419Z,101101.06
2023-05-09T15:50:46.587Z,101096.34
2023-05-09T15:53:15.703Z,101099.91
2023-05-09T15:55:44.769Z,101100.59
2023-05-09T15:58:14.224Z,101101.38
2023-05-09T16:00:42.528Z,101098.19
2023-05-09T16:03:10.923Z,101097.25
2023-05-09T16:05:41.477Z,101093.19
2023-05-09T16:08:09.798Z,101095.66
2023-05-09T16:10:38.148Z,101097.25
2023-05-09T16:13:06.691Z,101107.03
2023-05-09T16:15:35.263Z,101104.41
2023-05-09T16:18:03.872Z,101098.47
2023-05-09T16:20:32.287Z,101093.09
2023-05-09T16:23:01.980Z,101095.28
2023-05-09T16:25:30.393Z,101096.38
2023-05-09T16:27:58.630Z,101100.22
2023-05-09T16:30:26.985Z,101104.25
2023-05-09T16:32:55.314Z,101100.88
2023-05-09T16:35:23.725Z,101101.19
2023-05-09T16:37:52.153Z,101101.94
2023-05-09T16:40:22.208Z,101096.88
2023-05-09T16:42:50.658Z,101106.63
2023-05-09T16:45:19.115Z,101110.16
2023-05-09T16:47:47.479Z,101109.06
2023-05-09T16:50:15.966Z,101108.91
2023-05-09T16:52:44.346Z,101110.59
2023-05-09T16:55:12.648Z,101108.50
2023-05-09T16:57:42.509Z,101100.25
2023-05-09T17:00:11.496Z,101106.19
2023-05-09T17:02:39.894Z,101104.84
2023-05-09T17:05:09.092Z,101102.47
2023-05-09T17:07:37.420Z,101105.22
2023-05-09T17:10:06.379Z,101113.28
2023-05-09T17:12:35.256Z,101117.84
2023-05-09T17:15:05.566Z,101113.84
2023-05-09T17:17:34.051Z,101110.75
2023-05-09T17:20:02.688Z,101118.00
2023-05-09T17:22:31.022Z,101115.63
2023-05-09T17:24:59.373Z,101111.91
2023-05-09T17:27:28.027Z,101115.66
2023-05-09T17:29:56.614Z,101117.25
2023-05-09T17:32:26.358Z,101117.75
2023-05-09T17:34:54.748Z,101120.56
2023-05-09T17:37:23.044Z,101115.72
2023-05-09T17:39:51.839Z,101127.00
2023-05-09T17:42:20.121Z,101132.44
2023-05-09T17:44:48.461Z,101131.94
2023-05-09T17:47:16.797Z,101134.97
2023-05-09T17:49:46.702Z,101136.28
2023-05-09T17:52:15.140Z,101134.47
2023-05-09T17:54:43.942Z,101137.16
2023-05-09T17:57:12.222Z,101138.50
2023-05-09T17:59:41.563Z,101146.28
2023-05-09T18:02:10.060Z,101149.19
2023-05-09T18:04:38.432Z,101146.00
2023-05-09T18:07:09.962Z,101150.38
2023-05-09T18:09:38.271Z,101155.38
2023-05-09T18:12:06.798Z,101153.53
2023-05-09T18:14:35.822Z,101161.63
2023-05-09T18:17:04.106Z,101162.97
2023-05-09T18:19:33.287Z,101163.78
2023-05-09T18:22:01.642Z,101161.69
2023-05-09T18:24:31.492Z,101159.06
2023-05-09T18:26:59.777Z,101163.94
2023-05-09T18:29:28.061Z,101161.22
2023-05-09T18:31:56.414Z,101164.66
2023-05-09T18:34:24.885Z,101167.09
2023-05-09T18:36:53.502Z,101166.56
2023-05-09T18:39:21.870Z,101173.44
2023-05-09T18:41:51.581Z,101165.75
2023-05-09T18:44:19.921Z,101164.91
2023-05-09T18:46:48.440Z,101157.75
2023-05-09T18:49:17.263Z,101165.56
2023-05-09T18:51:45.581Z,101159.66
2023-05-09T18:54:14.250Z,101169.81
2023-05-09T18:56:43.167Z,101172.75
2023-05-09T18:59:16.380Z,101165.28
2023-05-09T19:01:45.075Z,101171.94
2023-05-09T19:04:14.211Z,101167.06
2023-05-09T19:06:43.205Z,101167.06
2023-05-09T19:09:11.648Z,101166.25
2023-05-09T19:11:39.988Z,101167.06
2023-05-09T19:14:08.523Z,101165.28
2023-05-09T19:16:38.303Z,101162.84
2023-05-09T19:19:06.612Z,101164.81
2023-05-09T19:21:35.790Z,101165.63
2023-05-09T19:24:06.404Z,101168.59
2023-05-09T19:26:34.677Z,101164.84
2023-05-09T19:29:08.334Z,101161.91
2023-05-09T19:31:38.627Z,101164.59
2023-05-09T19:34:06.936Z,101162.97
2023-05-09T19:36:35.268Z,101172.06
2023-05-09T19:39:05.252Z,101171.03
2023-05-09T19:41:33.728Z,101166.78
2023-05-09T19:44:02.123Z,101167.31
2023-05-09T19:46:30.469Z,101177.75
2023-05-09T19:49:00.297Z,101172.16
2023-05-09T19:51:28.759Z,101174.31
2023-05-09T19:53:57.039Z,101173.78
2023-05-09T19:56:25.926Z,101170.03
2023-05-09T19:58:54.984Z,101172.97
2023-05-09T20:01:23.482Z,101174.84
2023-05-09T20:03:52.440Z,101179.66
2023-05-09T20:06:22.374Z,101180.22
2023-05-09T20:08:52.189Z,101171.69
2023-05-09T20:11:21.745Z,101176.47
2023-05-09T20:13:50.038Z,101167.41
2023-05-09T20:16:20.038Z,101167.13
2023-05-09T20:18:50.709Z,101173.53
2023-05-09T20:21:21.843Z,101170.84
2023-05-09T20:23:50.124Z,101162.59
2023-05-09T20:26:18.479Z,101160.75
2023-05-09T20:28:46.748Z,101162.63
2023-05-09T20:31:15.032Z,101162.34
2023-05-09T20:33:43.373Z,101158.31
2023-05-09T20:36:11.672Z,101164.72
2023-05-09T20:38:41.528Z,101158.06
2023-05-09T20:41:09.900Z,101162.59
2023-05-09T20:43:38.513Z,101148.72
2023-05-09T20:46:07.009Z,101158.88
2023-05-09T20:48:35.333Z,101155.66
2023-05-09T20:51:03.633Z,101148.75
2023-05-09T20:53:32.626Z,101149.25
2023-05-09T20:56:03.113Z,101142.84
2023-05-09T20:58:34.487Z,101136.72
2023-05-09T21:01:02.904Z,101133.78
2023-05-09T21:03:31.322Z,101140.47
2023-05-09T21:06:00.102Z,101134.59
2023-05-09T21:08:28.349Z,101123.13
2023-05-09T21:10:56.603Z,101133.00
2023-05-09T21:13:26.773Z,101131.16
2023-05-09T21:15:55.228Z,101121.53
2023-05-09T21:18:23.463Z,101122.59
2023-05-09T21:20:52.039Z,101125.25
2023-05-09T21:23:20.452Z,101125.00
2023-05-09T21:25:48.795Z,101117.78
2023-05-09T21:28:17.536Z,101126.31
2023-05-09T21:30:52.198Z,101128.47
2023-05-09T21:33:20.551Z,101114.06
2023-05-09T21:35:49.079Z,101113.25
2023-05-09T21:38:17.346Z,101116.72
2023-05-09T21:40:45.831Z,101109.25
2023-05-09T21:43:14.136Z,101107.38
2023-05-09T21:45:42.537Z,101104.44
2023-05-09T21:48:12.488Z,101101.00
2023-05-09T21:50:40.835Z,101104.47
2023-05-09T21:53:09.226Z,101099.91
2023-05-09T21:55:37.484Z,101099.13
2023-05-09T21:58:06.250Z,101103.66
2023-05-09T22:00:34.626Z,101103.94
2023-05-09T22:03:03.047Z,101099.13
2023-05-09T22:05:32.851Z,101096.72
2023-05-09T22:08:01.118Z,101105.00
2023-05-09T22:10:29.589Z,101097.78
2023-05-09T22:12:58.469Z,101094.88
2023-05-09T22:15:27.797Z,101095.41
2023-05-09T22:17:56.124Z,101093.00
2023-05-09T22:20:24.665Z,101095.69
2023-05-09T22:22:54.438Z,101081.81
2023-05-09T22:25:22.934Z,101087.13
2023-05-09T22:27:51.218Z,101085.00
2023-05-09T22:30:19.461Z,101087.69
2023-05-09T22:32:47.758Z,101091.69
2023-05-09T22:35:15.999Z,101081.00
2023-05-09T22:37:44.477Z,101079.38
2023-05-09T22:40:14.821Z,101078.84
2023-05-09T22:42:43.295Z,101083.66
2023-05-09T22:45:12.509Z,101084.44
2023-05-09T22:47:40.839Z,101087.09
2023-05-09T22:50:10.557Z,101085.22
2023-05-09T22:52:38.821Z,101076.44
2023-05-09T22:55:08.195Z,101078.84
2023-05-09T22:57:37.889Z,101074.56
2023-05-09T23:00:07.917Z,101077.25
2023-05-09T23:02:36.245Z,101069.75
2023-05-09T23:05:04.745Z,101069.22
2023-05-09T23:07:33.236Z,101069.75
2023-05-09T23:10:01.801Z,101067.09
2023-05-09T23:12:30.175Z,101065.25
2023-05-09T23:15:00.063Z,101060.97
2023-05-09T23:17:28.539Z,101051.09
2023-05-09T23:19:56.805Z,101060.44
2023-05-09T23:22:25.049Z,101059.63
2023-05-09T23:24:53.313Z,101056.69
2023-05-09T23:27:21.653Z,101054.81
2023-05-09T23:29:50.074Z,101053.75
2023-05-09T23:32:20.372Z,101051.63
2023-05-09T23:34:48.640Z,101052.16
2023-05-09T23:37:17.338Z,101050.03
2023-05-09T23:39:45.738Z,101053.22
2023-05-09T23:42:14.038Z,101052.41
2023-05-09T23:44:42.720Z,101046.81
2023-05-09T23:47:10.971Z,101046.28
2023-05-09T23:49:40.741Z,101045.19
2023-05-09T23:52:09.916Z,101043.09
2023-05-09T23:54:38.753Z,101036.16
2023-05-09T23:57:07.012Z,101030.06
2023-05-09T23:59:35.466Z,101028.69
